createdAt,value
2018-07-05T00:01:08.684Z,16.90
2018-07-05T00:06:25.177Z,17.00
2018-07-05T00:11:40.648Z,16.90
2018-07-05T00:16:56.175Z,16.80
2018-07-05T00:22:11.866Z,16.70
2018-07-05T00:27:27.462Z,16.70
2018-07-05T00:32:43.135Z,16.40
2018-07-05T00:37:58.960Z,16.40
2018-07-05T00:43:14.660Z,16.40
2018-07-05T00:48:30.531Z,16.40
2018-07-05T00:53:46.429Z,16.50
2018-07-05T00:59:02.243Z,16.60
2018-07-05T01:04:17.910Z,16.70
2018-07-05T01:09:33.726Z,16.60
2018-07-05T01:14:49.425Z,16.50
2018-07-05T01:20:04.991Z,16.50
2018-07-05T01:25:20.766Z,16.60
2018-07-05T01:30:36.236Z,16.50
2018-07-05T01:35:51.967Z,16.40
2018-07-05T01:41:07.480Z,16.50
2018-07-05T01:46:23.236Z,16.50
2018-07-05T01:51:38.938Z,16.40
2018-07-05T01:56:54.516Z,16.60
2018-07-05T02:02:10.047Z,16.60
2018-07-05T02:07:25.820Z,16.70
2018-07-05T02:12:41.495Z,16.80
2018-07-05T02:17:57.085Z,16.70
2018-07-05T02:23:12.883Z,16.60
2018-07-05T02:28:28.592Z,16.70
2018-07-05T02:33:45.938Z,16.70
2018-07-05T02:39:06.806Z,16.90
2018-07-05T02:44:22.634Z,17.40
2018-07-05T02:49:38.338Z,17.90
2018-07-05T02:54:53.908Z,18.10
2018-07-05T03:00:09.721Z,18.30
2018-07-05T03:05:25.812Z,18.50
2018-07-05T03:10:41.505Z,18.60
2018-07-05T03:15:56.976Z,18.90
2018-07-05T03:21:12.561Z,18.90
2018-07-05T03:26:28.262Z,18.90
2018-07-05T03:31:43.950Z,19.00
2018-07-05T03:36:59.743Z,19.00
2018-07-05T03:42:15.561Z,19.10
2018-07-05T03:47:31.821Z,19.20
2018-07-05T03:52:47.338Z,19.30
2018-07-05T03:58:02.944Z,19.40
2018-07-05T04:03:18.751Z,19.50
2018-07-05T04:08:34.653Z,19.50
2018-07-05T04:13:50.298Z,19.60
2018-07-05T04:19:06.447Z,19.70
2018-07-05T04:24:22.001Z,19.70
2018-07-05T04:29:37.499Z,19.80
2018-07-05T04:34:52.994Z,19.80
2018-07-05T04:40:08.685Z,19.90
2018-07-05T04:45:24.315Z,19.70
2018-07-05T04:50:40.179Z,19.70
2018-07-05T04:55:56.275Z,19.80
2018-07-05T05:01:11.873Z,19.80
2018-07-05T05:06:27.565Z,19.80
2018-07-05T05:11:43.460Z,19.60
2018-07-05T05:16:59.138Z,19.30
2018-07-05T05:22:15.052Z,19.20
2018-07-05T05:27:30.751Z,19.30
2018-07-05T05:32:46.311Z,19.40
2018-07-05T05:38:01.946Z,19.40
2018-07-05T05:43:17.690Z,19.50
2018-07-05T05:48:33.396Z,19.60
2018-07-05T05:53:49.244Z,19.60
2018-07-05T05:59:05.011Z,19.50
2018-07-05T06:04:20.498Z,19.40
2018-07-05T06:09:36.384Z,19.30
2018-07-05T06:14:52.278Z,19.30
2018-07-05T06:20:08.085Z,19.40
2018-07-05T06:25:23.714Z,19.50
2018-07-05T06:30:39.365Z,19.60
2018-07-05T06:35:55.055Z,19.60
2018-07-05T06:41:10.856Z,19.60
2018-07-05T06:46:26.550Z,19.60
2018-07-05T06:51:42.167Z,19.60
2018-07-05T06:56:57.724Z,19.60
2018-07-05T07:02:13.625Z,19.70
2018-07-05T07:07:29.642Z,19.80
2018-07-05T07:12:45.746Z,20.00
2018-07-05T07:18:01.727Z,20.10
2018-07-05T07:23:17.524Z,20.30
2018-07-05T07:28:32.983Z,20.50
2018-07-05T07:33:48.712Z,20.90
2018-07-05T07:39:05.035Z,21.10
2018-07-05T07:44:08.438Z,21.50
2018-07-05T07:49:11.730Z,21.50
2018-07-05T07:54:15.149Z,21.50
2018-07-05T07:59:18.443Z,21.50
2018-07-05T08:04:21.606Z,21.70
2018-07-05T08:09:25.131Z,21.90
2018-07-05T08:14:28.537Z,22.20
2018-07-05T08:19:31.803Z,22.10
2018-07-05T08:24:35.147Z,22.20
2018-07-05T08:29:38.466Z,22.40
2018-07-05T08:34:41.734Z,22.00
2018-07-05T08:39:45.060Z,22.10
2018-07-05T08:44:48.523Z,22.50
2018-07-05T08:49:51.865Z,22.70
2018-07-05T08:54:55.170Z,22.80
2018-07-05T08:59:58.774Z,22.50
2018-07-05T09:05:02.443Z,22.30
2018-07-05T09:10:05.770Z,22.20
2018-07-05T09:15:08.915Z,21.90
2018-07-05T09:20:12.492Z,21.70
2018-07-05T09:25:15.721Z,21.80
2018-07-05T09:30:19.015Z,21.90
2018-07-05T09:35:22.300Z,22.30
2018-07-05T09:40:25.606Z,22.70
2018-07-05T09:45:28.776Z,23.10
2018-07-05T09:50:32.114Z,23.60
2018-07-05T09:55:35.908Z,23.60
2018-07-05T10:00:44.315Z,23.40
2018-07-05T10:05:47.637Z,22.90
2018-07-05T10:10:50.943Z,22.80
2018-07-05T10:15:54.260Z,22.80
2018-07-05T10:20:58.177Z,22.60
2018-07-05T10:26:01.339Z,22.80
2018-07-05T10:31:17.529Z,22.60
2018-07-05T10:36:21.074Z,22.80
2018-07-05T10:41:36.686Z,23.10
2018-07-05T10:46:52.562Z,23.10
2018-07-05T10:52:08.887Z,22.80
2018-07-05T10:57:24.775Z,22.60
2018-07-05T11:02:40.260Z,22.40
2018-07-05T11:07:56.260Z,22.00
2018-07-05T11:13:12.135Z,21.60
2018-07-05T11:18:27.772Z,21.40
2018-07-05T11:23:43.641Z,21.40
2018-07-05T11:28:59.454Z,21.20
2018-07-05T11:34:14.986Z,21.30
2018-07-05T11:39:30.717Z,21.10
2018-07-05T11:44:46.617Z,20.90
2018-07-05T11:50:02.265Z,21.00
2018-07-05T11:55:18.219Z,20.80
2018-07-05T12:00:33.794Z,20.80
2018-07-05T12:05:49.467Z,21.00
2018-07-05T12:11:05.040Z,20.90
2018-07-05T12:16:20.766Z,20.80
2018-07-05T12:21:36.227Z,20.90
2018-07-05T12:26:51.831Z,20.90
2018-07-05T12:32:08.466Z,20.80
2018-07-05T12:37:24.498Z,20.60
2018-07-05T12:42:40.131Z,20.70
2018-07-05T12:47:56.092Z,20.70
2018-07-05T12:53:11.741Z,20.70
2018-07-05T12:58:27.537Z,21.30
2018-07-05T13:03:43.228Z,21.70
2018-07-05T13:08:59.049Z,22.30
2018-07-05T13:14:14.941Z,23.30
2018-07-05T13:19:30.924Z,25.00
2018-07-05T13:24:46.829Z,28.40
2018-07-05T13:30:02.723Z,28.20
2018-07-05T13:35:18.411Z,26.60
2018-07-05T13:40:33.981Z,26.10
2018-07-05T13:45:49.920Z,26.70
2018-07-05T13:51:05.838Z,26.00
2018-07-05T13:56:21.589Z,25.30
2018-07-05T14:01:37.029Z,24.60
2018-07-05T14:06:52.870Z,24.40
2018-07-05T14:12:08.770Z,24.20
2018-07-05T14:17:24.361Z,23.90
2018-07-05T14:22:40.020Z,23.80
2018-07-05T14:27:55.744Z,24.10
2018-07-05T14:33:11.203Z,24.70
2018-07-05T14:38:27.038Z,24.50
2018-07-05T14:43:42.828Z,23.30
2018-07-05T14:48:58.768Z,22.50
2018-07-05T14:54:14.329Z,22.10
2018-07-05T14:59:30.830Z,21.50
2018-07-05T15:04:46.614Z,21.40
2018-07-05T15:10:02.632Z,23.80
2018-07-05T15:15:18.407Z,25.00
2018-07-05T15:20:33.999Z,23.20
2018-07-05T15:25:49.490Z,22.50
2018-07-05T15:31:05.414Z,25.20
2018-07-05T15:36:20.977Z,23.90
2018-07-05T15:41:36.765Z,22.50
2018-07-05T15:46:52.128Z,21.40
2018-07-05T15:52:08.052Z,20.40
2018-07-05T15:57:24.069Z,20.00
2018-07-05T16:02:39.856Z,20.10
2018-07-05T16:07:55.565Z,20.20
2018-07-05T16:13:11.342Z,20.80
2018-07-05T16:18:27.231Z,22.30
2018-07-05T16:23:43.034Z,25.60
2018-07-05T16:28:59.111Z,25.90
2018-07-05T16:34:15.041Z,25.90
2018-07-05T16:39:30.811Z,26.90
2018-07-05T16:44:46.676Z,26.30
2018-07-05T16:50:02.877Z,26.30
2018-07-05T16:55:18.860Z,24.30
2018-07-05T17:00:34.709Z,24.50
2018-07-05T17:05:50.523Z,24.00
2018-07-05T17:11:06.195Z,24.10
2018-07-05T17:16:21.934Z,24.40
2018-07-05T17:21:37.723Z,23.80
2018-07-05T17:26:53.383Z,22.30
2018-07-05T17:32:09.069Z,21.40
2018-07-05T17:37:24.897Z,21.20
2018-07-05T17:42:40.744Z,21.00
2018-07-05T17:47:56.447Z,20.70
2018-07-05T17:53:12.128Z,20.60
2018-07-05T17:58:27.970Z,20.50
2018-07-05T18:03:43.651Z,20.60
2018-07-05T18:08:59.363Z,20.80
2018-07-05T18:14:14.934Z,20.90
2018-07-05T18:19:30.422Z,20.60
2018-07-05T18:24:45.974Z,20.30
2018-07-05T18:30:01.765Z,19.60
2018-07-05T18:35:17.392Z,19.20
2018-07-05T18:40:33.221Z,19.00
2018-07-05T18:45:48.969Z,18.90
2018-07-05T18:51:05.450Z,18.60
2018-07-05T18:56:21.183Z,18.40
2018-07-05T19:01:36.855Z,17.90
2018-07-05T19:06:52.505Z,17.90
2018-07-05T19:12:09.846Z,17.80
2018-07-05T19:17:25.679Z,17.40
2018-07-05T19:22:41.388Z,17.30
2018-07-05T19:27:57.198Z,17.30
2018-07-05T19:33:12.941Z,17.30
2018-07-05T19:38:29.390Z,17.10
2018-07-05T19:43:45.193Z,17.00
2018-07-05T19:49:01.103Z,17.00
2018-07-05T19:54:16.960Z,17.10
2018-07-05T19:59:32.563Z,17.00
2018-07-05T20:04:48.385Z,17.00
2018-07-05T20:10:04.056Z,17.00
2018-07-05T20:15:19.645Z,17.00
2018-07-05T20:20:35.577Z,17.10
2018-07-05T20:25:51.334Z,17.20
2018-07-05T20:36:17.108Z,17.10
2018-07-05T20:41:33.088Z,17.10
2018-07-05T20:46:48.895Z,16.90
2018-07-05T20:52:04.480Z,16.80
2018-07-05T20:57:20.080Z,16.80
2018-07-05T21:02:35.865Z,16.80
2018-07-05T21:13:01.820Z,16.70
2018-07-05T21:18:17.416Z,16.70
2018-07-05T21:23:33.058Z,16.70
2018-07-05T21:28:48.482Z,16.80
2018-07-05T21:34:04.271Z,16.90
2018-07-05T21:39:19.790Z,16.90
2018-07-05T21:44:35.456Z,17.00
2018-07-05T21:49:51.390Z,16.90
2018-07-05T21:55:07.373Z,16.70
2018-07-05T22:00:23.124Z,16.80
2018-07-05T22:05:39.105Z,16.90
2018-07-05T22:10:55.081Z,16.90
2018-07-05T22:16:10.891Z,16.90
2018-07-05T22:21:26.811Z,16.80
2018-07-05T22:26:46.557Z,16.60
2018-07-05T22:32:02.348Z,16.60
2018-07-05T22:37:18.567Z,16.60
2018-07-05T22:42:34.029Z,16.70
2018-07-05T22:47:49.849Z,16.60
2018-07-05T22:58:14.762Z,16.60
2018-07-05T23:03:30.276Z,16.60
2018-07-05T23:08:46.279Z,16.60
2018-07-05T23:14:01.731Z,16.50
2018-07-05T23:19:17.336Z,16.60
2018-07-05T23:24:34.269Z,16.60
2018-07-05T23:29:50.155Z,16.60
2018-07-05T23:35:06.056Z,16.60
2018-07-05T23:40:21.652Z,16.60
2018-07-05T23:45:37.229Z,16.60
2018-07-05T23:50:52.924Z,16.60
2018-07-05T23:56:08.635Z,16.60
